Time;durP1;ratioP1;P1;durP2;ratioP2;P2;SDS_P1;SDS_P2;PMS_P1;PMS_P2;Temp;Humidity;BMP_temperature;BMP_pressure;BME280_temperature;BME280_humidity;BME280_pressure;Samples;Min_cycle;Max_cycle;Signal;HPM_P1;HPM_P2
2021/11/04 00:01:02;;;;;;;14.73;8.93;;;358.50;2329.60;;;;;;4806638;29;20105;-80
2021/11/04 00:03:27;;;;;;;16.20;9.48;;;358.60;2329.60;;;;;;4805260;29;20030;-80
2021/11/04 00:05:54;;;;;;;13.98;9.25;;;358.60;2329.60;;;;;;4808837;29;20434;-82
2021/11/04 00:08:20;;;;;;;12.18;8.75;;;358.60;2329.60;;;;;;4806831;29;20406;-95
2021/11/04 00:10:46;;;;;;;15.68;8.63;;;358.50;2329.60;;;;;;4805740;29;20117;-88
2021/11/04 00:13:12;;;;;;;20.73;8.38;;;358.50;2329.60;;;;;;4790560;29;20122;-80
2021/11/04 00:15:38;;;;;;;16.33;9.20;;;358.50;2329.60;;;;;;4806985;29;20055;-79
2021/11/04 00:18:04;;;;;;;15.65;9.27;;;358.50;2329.60;;;;;;4790009;29;20034;-81
2021/11/04 00:20:30;;;;;;;13.65;8.85;;;358.50;2329.60;;;;;;4790118;29;20035;-95
2021/11/04 00:22:56;;;;;;;14.30;8.60;;;358.50;2329.60;;;;;;4790247;29;20034;-80
2021/11/04 00:25:22;;;;;;;13.20;8.18;;;358.50;2329.60;;;;;;4808068;29;20377;-79
2021/11/04 00:27:50;;;;;;;12.20;7.82;;;358.60;2329.60;;;;;;4808712;29;20038;-79
2021/11/04 00:30:17;;;;;;;17.50;8.55;;;358.50;2329.60;;;;;;4793917;29;20527;-80
2021/11/04 00:32:51;;;;;;;17.00;8.88;;;358.60;2329.60;;;;;;4809855;29;20038;-79
2021/11/04 00:35:18;;;;;;;13.68;8.07;;;358.60;2329.60;;;;;;4810266;29;20027;-79
2021/11/04 00:37:46;;;;;;;14.02;8.23;;;358.60;2329.60;;;;;;4809975;29;20492;-80
2021/11/04 00:40:16;;;;;;;13.50;8.57;;;358.60;2329.60;;;;;;4809659;29;20046;-80
2021/11/04 00:42:42;;;;;;;11.32;7.72;;;358.60;2329.60;;;;;;4809697;29;20109;-96
2021/11/04 00:45:09;;;;;;;19.42;8.52;;;358.50;2329.60;;;;;;4793788;29;20577;-80
2021/11/04 00:47:36;;;;;;;11.98;7.60;;;358.50;2329.60;;;;;;4809464;29;20031;-78
2021/11/04 00:50:03;;;;;;;12.93;8.02;;;358.50;2329.60;;;;;;4808285;29;20035;-79
2021/11/04 00:52:29;;;;;;;13.25;7.70;;;358.50;2329.60;;;;;;4793069;29;20426;-79
2021/11/04 00:54:55;;;;;;;11.35;7.65;;;358.50;2329.60;;;;;;4809605;29;20088;-79
2021/11/04 00:57:21;;;;;;;13.88;7.22;;;358.50;2329.60;;;;;;4808476;29;20556;-95
2021/11/04 00:59:48;;;;;;;13.55;7.20;;;358.50;2329.60;;;;;;4808249;29;20030;-79
2021/11/04 01:02:14;;;;;;;13.70;8.13;;;358.50;2329.60;;;;;;4793121;29;20031;-79
2021/11/04 01:04:40;;;;;;;14.13;7.70;;;358.50;2329.60;;;;;;4793368;29;20038;-79
2021/11/04 01:07:06;;;;;;;12.98;7.68;;;358.50;2329.60;;;;;;4793124;29;20118;-94
2021/11/04 01:09:32;;;;;;;13.80;7.60;;;358.50;2329.60;;;;;;4808012;29;20133;-94
2021/11/04 01:11:58;;;;;;;12.35;7.65;;;358.60;2329.60;;;;;;4809187;29;20026;-79
2021/11/04 01:14:24;;;;;;;11.38;7.22;;;358.50;2329.60;;;;;;4808507;29;20055;-84
2021/11/04 01:16:50;;;;;;;13.00;7.03;;;358.60;2329.60;;;;;;4808228;29;20060;-79
2021/11/04 01:19:16;;;;;;;14.10;6.80;;;358.60;2329.60;;;;;;4807845;29;20034;-79
2021/11/04 01:21:42;;;;;;;15.15;7.28;;;358.60;2329.60;;;;;;4808812;29;20038;-79
2021/11/04 01:24:08;;;;;;;15.05;7.57;;;358.60;2329.60;;;;;;4808841;29;20034;-79
2021/11/04 01:26:34;;;;;;;11.32;7.60;;;358.60;2329.60;;;;;;4793470;29;20035;-82
2021/11/04 01:29:00;;;;;;;13.85;6.97;;;358.60;2329.60;;;;;;4792983;29;20099;-79
2021/11/04 01:31:27;;;;;;;11.18;7.03;;;358.60;2329.60;;;;;;4807654;29;20023;-79
2021/11/04 01:33:52;;;;;;;10.25;7.25;;;358.70;2329.60;;;;;;4809187;29;20061;-95
2021/11/04 01:36:18;;;;;;;11.88;6.95;;;358.70;2329.60;;;;;;4806993;29;20031;-95
2021/11/04 01:38:44;;;;;;;10.80;6.95;;;358.80;2329.60;;;;;;4807323;29;20031;-95
2021/11/04 01:41:10;;;;;;;10.77;6.65;;;358.80;2329.60;;;;;;4811173;29;20027;-82
2021/11/04 01:43:36;;;;;;;14.90;7.55;;;358.80;2329.60;;;;;;4794133;29;20031;-96
2021/11/04 01:46:03;;;;;;;11.48;7.07;;;358.80;2329.60;;;;;;4792737;29;20545;-79
2021/11/04 01:48:28;;;;;;;13.10;7.28;;;358.80;2329.60;;;;;;4808427;29;20043;-79
2021/11/04 01:50:55;;;;;;;9.43;6.70;;;358.90;2329.60;;;;;;4808107;29;20050;-79
2021/11/04 01:53:22;;;;;;;11.00;7.35;;;358.90;2329.60;;;;;;4808470;29;20446;-95
2021/11/04 01:55:48;;;;;;;12.38;7.00;;;358.90;2329.60;;;;;;4807671;29;20400;-80
2021/11/04 01:58:15;;;;;;;11.05;7.68;;;358.90;2329.60;;;;;;4808985;29;20055;-80
2021/11/04 02:00:42;;;;;;;15.25;7.50;;;358.90;2329.60;;;;;;4792598;29;20027;-94
2021/11/04 02:03:26;;;;;;;10.82;6.55;;;358.90;2329.60;;;;;;4808563;29;20041;-94
2021/11/04 02:06:21;;;;;;;12.02;7.22;;;358.90;2329.60;;;;;;4808647;29;20031;-95
2021/11/04 02:08:52;;;;;;;12.30;7.20;;;358.90;2329.60;;;;;;4782314;29;20054;-95
2021/11/04 02:11:22;;;;;;;13.65;7.13;;;358.90;2329.60;;;;;;4807639;29;20023;-95
2021/11/04 02:14:06;;;;;;;12.02;6.93;;;358.90;2329.60;;;;;;4806594;29;20099;-79
2021/11/04 02:16:34;;;;;;;12.32;7.15;;;358.90;2329.60;;;;;;4791720;29;20122;-80
2021/11/04 02:19:07;;;;;;;12.13;7.20;;;358.90;2329.60;;;;;;4808034;29;20035;-94
2021/11/04 02:21:47;;;;;;;11.00;6.85;;;358.90;2329.60;;;;;;4807842;29;20035;-96
2021/11/04 02:25:02;;;;;;;13.05;7.57;;;358.90;2329.60;;;;;;4792016;29;20038;-96
2021/11/04 02:27:28;;;;;;;12.18;6.93;;;358.90;2329.60;;;;;;4720336;30;20039;-79
2021/11/04 02:29:55;;;;;;;11.25;6.55;;;358.80;2329.60;;;;;;4734768;30;20108;-94
2021/11/04 02:32:21;;;;;;;15.77;7.90;;;358.80;2329.60;;;;;;4770129;29;20046;-78
2021/11/04 02:34:48;;;;;;;12.50;7.07;;;358.80;2329.60;;;;;;4809249;29;20031;-94
2021/11/04 02:37:14;;;;;;;11.63;7.28;;;358.90;2329.60;;;;;;4808325;29;20038;-85
2021/11/04 02:39:43;;;;;;;13.27;7.55;;;358.90;2329.60;;;;;;4793213;29;20038;-79
2021/11/04 02:42:10;;;;;;;12.07;6.72;;;358.90;2329.60;;;;;;4791551;29;20069;-78
2021/11/04 02:44:36;;;;;;;11.05;7.18;;;358.90;2329.60;;;;;;4806404;29;20054;-79
2021/11/04 02:47:03;;;;;;;9.93;6.53;;;358.90;2329.60;;;;;;4791517;29;20080;-95
2021/11/04 02:49:30;;;;;;;10.15;6.25;;;359.00;2329.60;;;;;;4807103;29;20479;-93
2021/11/04 02:51:57;;;;;;;8.65;5.95;;;359.00;2329.60;;;;;;4806319;29;20121;-79
2021/11/04 02:54:23;;;;;;;9.68;5.93;;;359.00;2329.60;;;;;;4807595;29;20113;-79
2021/11/04 02:56:55;;;;;;;10.93;6.63;;;359.00;2329.60;;;;;;4806164;29;20023;-93
2021/11/04 02:59:24;;;;;;;13.13;5.97;;;359.00;2329.60;;;;;;4791169;29;20047;-79
2021/11/04 03:01:59;;;;;;;11.82;6.70;;;359.00;2329.60;;;;;;4806117;29;20463;-83
2021/11/04 03:04:25;;;;;;;11.25;6.45;;;359.00;2329.60;;;;;;4807274;29;20027;-80
2021/11/04 03:06:53;;;;;;;10.23;5.40;;;359.00;2329.60;;;;;;4790918;29;20512;-95
2021/11/04 03:09:20;;;;;;;8.70;5.38;;;359.10;2329.60;;;;;;4806135;29;20046;-81
2021/11/04 03:11:46;;;;;;;12.32;5.38;;;359.10;2329.60;;;;;;4791093;29;20034;-81
2021/11/04 03:14:13;;;;;;;7.38;5.20;;;359.10;2329.60;;;;;;4806933;29;20061;-79
2021/11/04 03:16:45;;;;;;;11.70;5.05;;;359.10;2329.60;;;;;;4791094;29;20481;-79
2021/11/04 03:19:14;;;;;;;8.63;4.60;;;359.10;2329.60;;;;;;4806463;29;20031;-94
2021/11/04 03:21:46;;;;;;;9.95;4.80;;;359.20;2329.60;;;;;;4790889;29;20039;-80
2021/11/04 03:24:18;;;;;;;8.57;4.03;;;359.30;2329.60;;;;;;4776473;29;20485;-79
2021/11/04 03:26:49;;;;;;;8.73;5.28;;;359.30;2329.60;;;;;;4805723;29;20034;-83
2021/11/04 03:29:17;;;;;;;9.48;4.72;;;359.30;2329.60;;;;;;4802456;29;20042;-79
2021/11/04 03:31:44;;;;;;;10.13;4.72;;;359.30;2329.60;;;;;;4790610;29;20064;-80
2021/11/04 03:34:10;;;;;;;10.05;5.90;;;359.30;2329.60;;;;;;4790299;29;20038;-96
2021/11/04 03:36:37;;;;;;;10.30;5.57;;;359.30;2329.60;;;;;;4806837;29;20106;-79
2021/11/04 03:39:04;;;;;;;10.43;5.95;;;384.00;2329.60;;;;;;4805940;29;20062;-95
2021/11/04 03:41:33;;;;;;;11.32;5.50;;;384.00;2329.60;;;;;;4790364;29;20041;-96
2021/11/04 03:43:59;;;;;;;11.48;5.28;;;384.00;2329.60;;;;;;4806623;29;20067;-95
2021/11/04 03:46:26;;;;;;;12.30;5.97;;;384.00;2329.60;;;;;;4790361;29;20368;-80
2021/11/04 03:48:52;;;;;;;11.98;5.68;;;384.10;2329.60;;;;;;4806133;29;20133;-94
2021/11/04 03:51:21;;;;;;;12.13;5.28;;;384.10;2329.60;;;;;;4806447;29;20035;-78
2021/11/04 03:53:48;;;;;;;9.73;5.47;;;384.00;2329.60;;;;;;4806340;29;20061;-79
2021/11/04 03:56:15;;;;;;;8.75;5.05;;;384.10;2329.60;;;;;;4806709;29;20412;-82
2021/11/04 03:58:41;;;;;;;13.13;5.60;;;384.10;2329.60;;;;;;4805013;29;20053;-79
2021/11/04 04:01:09;;;;;;;14.75;5.50;;;384.10;2329.60;;;;;;4792815;29;20493;-94
2021/11/04 04:03:36;;;;;;;14.07;4.25;;;384.10;2329.60;;;;;;4810293;29;20052;-79
2021/11/04 04:06:08;;;;;;;9.43;4.57;;;384.20;2329.60;;;;;;4808914;29;20491;-79
2021/11/04 04:08:36;;;;;;;11.65;4.55;;;384.20;2329.60;;;;;;4794115;29;20047;-79
2021/11/04 04:11:05;;;;;;;10.43;5.10;;;384.20;2329.60;;;;;;4808785;29;20038;-84
2021/11/04 04:13:32;;;;;;;10.15;5.05;;;384.20;2329.60;;;;;;4808680;29;20049;-94
2021/11/04 04:15:58;;;;;;;9.88;4.60;;;384.30;2329.60;;;;;;4808940;29;20098;-79
2021/11/04 04:18:24;;;;;;;9.73;4.07;;;384.40;2329.60;;;;;;4808656;29;20404;-78
2021/11/04 04:20:51;;;;;;;9.60;4.53;;;384.40;2329.60;;;;;;4793591;29;20148;-94
2021/11/04 04:23:18;;;;;;;12.05;5.07;;;384.40;2329.60;;;;;;4793743;29;20557;-79
2021/11/04 04:25:45;;;;;;;11.80;4.10;;;384.40;2329.60;;;;;;4793717;29;20062;-78
2021/11/04 04:28:11;;;;;;;8.25;4.22;;;384.50;2329.60;;;;;;4809923;29;20063;-94
2021/11/04 04:30:37;;;;;;;10.52;4.28;;;384.50;2329.60;;;;;;4809371;29;20048;-79
2021/11/04 04:33:03;;;;;;;13.10;4.25;;;384.50;2329.60;;;;;;4808397;29;20027;-78
2021/11/04 04:35:29;;;;;;;12.70;4.32;;;384.50;2329.60;;;;;;4808325;29;20576;-93
2021/11/04 04:37:55;;;;;;;8.98;3.85;;;384.60;2329.60;;;;;;4808617;29;20476;-80
2021/11/04 04:40:21;;;;;;;12.57;4.05;;;384.70;2329.60;;;;;;4793301;29;20058;-79
2021/11/04 04:42:47;;;;;;;12.57;4.00;;;384.70;2329.60;;;;;;4808325;29;20058;-79
2021/11/04 04:45:16;;;;;;;11.13;4.10;;;384.80;2329.60;;;;;;4794379;29;20031;-78
2021/11/04 04:47:42;;;;;;;9.95;4.18;;;384.80;2329.60;;;;;;4808841;29;20503;-80
2021/11/04 04:50:09;;;;;;;9.60;3.97;;;409.80;2355.20;;;;;;4810633;29;20061;-79
2021/11/04 04:52:36;;;;;;;9.32;4.20;;;384.80;2329.60;;;;;;4809124;29;20034;-94
2021/11/04 04:55:03;;;;;;;8.25;4.20;;;384.80;2329.60;;;;;;4808811;29;20477;-94
2021/11/04 04:57:29;;;;;;;10.57;4.00;;;384.80;2329.60;;;;;;4793424;29;20026;-93
2021/11/04 04:59:57;;;;;;;8.23;3.90;;;384.90;2329.60;;;;;;4808358;29;20621;-80
2021/11/04 05:02:30;;;;;;;8.95;3.65;;;384.90;2329.60;;;;;;4812108;29;20057;-95
2021/11/04 05:04:56;;;;;;;8.55;3.58;;;409.60;2355.20;;;;;;4810559;29;20087;-94
2021/11/04 05:07:21;;;;;;;8.65;3.40;;;409.60;2355.20;;;;;;4814149;29;20031;-94
2021/11/04 05:09:47;;;;;;;13.32;4.03;;;409.60;2355.20;;;;;;4813583;29;20111;-95
2021/11/04 05:12:13;;;;;;;13.45;3.80;;;409.60;2355.20;;;;;;4784130;29;20058;-94
2021/11/04 05:14:39;;;;;;;12.43;4.20;;;409.70;2355.20;;;;;;4793108;29;20059;-93
2021/11/04 05:17:05;;;;;;;9.82;3.47;;;409.70;2355.20;;;;;;4808510;29;20049;-79
2021/11/04 05:19:31;;;;;;;9.05;3.50;;;409.70;2355.20;;;;;;4809510;29;20035;-93
2021/11/04 05:21:57;;;;;;;9.30;3.65;;;409.70;2355.20;;;;;;4809214;29;20534;-90
2021/11/04 05:24:23;;;;;;;8.77;3.53;;;409.70;2355.20;;;;;;4792980;29;20031;-92
2021/11/04 05:26:50;;;;;;;11.45;3.50;;;409.70;2355.20;;;;;;4793301;29;20066;-92
2021/11/04 05:29:16;;;;;;;8.65;3.53;;;409.70;2355.20;;;;;;4807518;29;20092;-78
2021/11/04 05:31:43;;;;;;;7.60;3.67;;;409.70;2355.20;;;;;;4808793;29;20055;-91
2021/11/04 05:34:09;;;;;;;9.63;4.13;;;409.70;2355.20;;;;;;4807559;29;20092;-92
2021/11/04 05:36:35;;;;;;;9.38;4.30;;;409.60;2355.20;;;;;;4793091;29;20126;-78
2021/11/04 05:39:01;;;;;;;9.88;4.00;;;409.60;2355.20;;;;;;4792567;29;20062;-91
2021/11/04 05:41:27;;;;;;;10.55;3.58;;;409.70;2355.20;;;;;;4808665;29;20113;-79
2021/11/04 05:43:53;;;;;;;12.32;3.63;;;409.70;2355.20;;;;;;4792230;29;20580;-80
2021/11/04 05:46:19;;;;;;;11.95;4.05;;;409.70;2355.20;;;;;;4808001;29;20039;-78
2021/11/04 05:48:45;;;;;;;10.57;4.50;;;409.70;2355.20;;;;;;4806857;29;20069;-78
2021/11/04 05:51:11;;;;;;;17.88;6.35;;;409.70;2355.20;;;;;;4807795;29;20066;-79
2021/11/04 05:53:37;;;;;;;18.77;7.13;;;409.70;2355.20;;;;;;4792182;29;20042;-81
2021/11/04 05:56:03;;;;;;;16.13;6.53;;;409.70;2355.20;;;;;;4791749;29;20035;-84
2021/11/04 05:58:29;;;;;;;16.80;7.07;;;409.70;2355.20;;;;;;4791966;29;20074;-79
2021/11/04 06:00:55;;;;;;;22.10;7.20;;;409.70;2355.20;;;;;;4791930;29;20125;-79
2021/11/04 06:03:21;;;;;;;15.40;5.53;;;409.70;2355.20;;;;;;4807786;29;20071;-79
2021/11/04 06:05:47;;;;;;;14.65;5.75;;;409.70;2355.20;;;;;;4808076;29;20030;-84
2021/11/04 06:08:13;;;;;;;14.90;6.05;;;409.70;2355.20;;;;;;4807608;29;20335;-79
2021/11/04 06:10:39;;;;;;;15.82;5.93;;;409.70;2355.20;;;;;;4791857;29;20026;-78
2021/11/04 06:13:05;;;;;;;9.95;5.90;;;409.70;2355.20;;;;;;4808420;29;20034;-84
2021/11/04 06:15:31;;;;;;;14.13;6.38;;;409.70;2355.20;;;;;;4791502;29;20504;-79
2021/11/04 06:17:57;;;;;;;17.13;7.20;;;409.70;2355.20;;;;;;4791532;29;20037;-79
2021/11/04 06:20:23;;;;;;;19.42;8.60;;;409.70;2355.20;;;;;;4807807;29;20392;-79
2021/11/04 06:22:49;;;;;;;19.13;7.43;;;409.70;2355.20;;;;;;4791096;29;20039;-79
2021/11/04 06:25:15;;;;;;;21.77;6.50;;;409.70;2355.20;;;;;;4806561;29;20037;-79
2021/11/04 06:27:41;;;;;;;14.25;5.80;;;409.80;2355.20;;;;;;4807615;29;20039;-79
2021/11/04 06:30:08;;;;;;;17.75;7.88;;;409.80;2329.60;;;;;;4806430;29;20129;-79
2021/11/04 06:32:35;;;;;;;16.17;7.00;;;409.90;2329.60;;;;;;4791429;29;20034;-80
2021/11/04 06:35:05;;;;;;;20.50;8.13;;;410.00;2329.60;;;;;;4791482;29;20373;-79
2021/11/04 06:37:31;;;;;;;23.02;9.55;;;410.00;2329.60;;;;;;4791423;29;20035;-86
2021/11/04 06:39:57;;;;;;;14.02;5.78;;;410.00;2329.60;;;;;;4791353;29;20031;-79
2021/11/04 06:42:23;;;;;;;12.38;5.25;;;410.00;2329.60;;;;;;4806205;29;20033;-83
2021/11/04 06:44:49;;;;;;;20.70;6.30;;;410.00;2304.00;;;;;;4791363;29;20070;-79
2021/11/04 06:47:46;;;;;;;14.63;6.20;;;410.00;2304.00;;;;;;4791008;29;20037;-80
2021/11/04 06:50:15;;;;;;;16.80;5.25;;;410.10;2329.60;;;;;;4806284;29;20434;-86
2021/11/04 06:52:50;;;;;;;10.82;4.13;;;410.10;2304.00;;;;;;4806308;29;20035;-84
2021/11/04 06:55:17;;;;;;;15.05;4.80;;;410.20;2304.00;;;;;;4807779;29;20035;-85
2021/11/04 06:57:44;;;;;;;15.90;4.40;;;410.30;2278.40;;;;;;4791312;29;20034;-81
2021/11/04 07:00:12;;;;;;;9.23;4.30;;;410.40;2278.40;;;;;;4807129;29;20469;-79
2021/11/04 07:02:40;;;;;;;15.05;4.70;;;410.50;2278.40;;;;;;4806055;29;20125;-83
2021/11/04 07:05:08;;;;;;;15.82;6.13;;;435.20;2252.80;;;;;;4805763;29;20027;-79
2021/11/04 07:07:48;;;;;;;12.70;4.30;;;435.30;2252.80;;;;;;4790587;29;20095;-79
2021/11/04 07:10:18;;;;;;;14.52;4.90;;;435.40;2227.20;;;;;;4790955;29;20472;-88
2021/11/04 07:12:47;;;;;;;12.75;5.00;;;435.50;2227.20;;;;;;4791022;29;20366;-81
2021/11/04 07:15:15;;;;;;;12.50;4.57;;;435.60;2227.20;;;;;;4807247;29;20058;-85
2021/11/04 07:17:42;;;;;;;15.85;4.60;;;435.70;2227.20;;;;;;4806195;29;20437;-87
2021/11/04 07:20:10;;;;;;;13.98;4.50;;;435.80;2201.60;;;;;;4791029;29;20038;-80
2021/11/04 07:22:49;;;;;;;12.65;3.90;;;436.00;2176.00;;;;;;4805346;29;20027;-78
2021/11/04 07:25:18;;;;;;;13.45;4.30;;;436.00;2176.00;;;;;;4807145;29;20055;-78
2021/11/04 07:28:02;;;;;;;13.07;3.65;;;436.10;2176.00;;;;;;4806427;29;20049;-79
2021/11/04 07:30:29;;;;;;;15.52;3.90;;;460.80;2201.60;;;;;;4806672;29;20370;-78
2021/11/04 07:33:04;;;;;;;15.77;3.95;;;460.90;2176.00;;;;;;4806623;29;20089;-78
2021/11/04 07:35:33;;;;;;;15.20;4.10;;;461.00;2176.00;;;;;;4789467;29;20035;-79
2021/11/04 07:37:59;;;;;;;20.70;4.53;;;461.20;2150.40;;;;;;4790420;29;20041;-79
2021/11/04 07:40:28;;;;;;;11.68;4.40;;;461.30;2124.80;;;;;;4805383;29;20042;-80
2021/11/04 07:42:55;;;;;;;14.20;3.78;;;461.40;2124.80;;;;;;4805216;29;20041;-79
2021/11/04 07:45:22;;;;;;;18.20;4.65;;;461.50;2099.20;;;;;;4806373;29;20041;-78
2021/11/04 07:47:49;;;;;;;14.85;4.43;;;486.40;2073.60;;;;;;4805151;29;20470;-78
2021/11/04 07:50:21;;;;;;;13.00;3.30;;;486.50;2048.00;;;;;;4806699;29;20042;-79
2021/11/04 07:52:48;;;;;;;13.18;3.75;;;486.70;2073.60;;;;;;4806737;29;20035;-79
2021/11/04 07:55:14;;;;;;;12.07;3.67;;;486.90;2022.40;;;;;;4790112;29;20058;-81
2021/11/04 07:57:41;;;;;;;22.02;4.13;;;486.90;2022.40;;;;;;4789871;29;20061;-78
2021/11/04 08:00:19;;;;;;;14.82;3.83;;;487.00;1996.80;;;;;;4805154;29;20039;-85
2021/11/04 08:02:45;;;;;;;16.58;4.30;;;487.00;1996.80;;;;;;4806356;29;20031;-83
2021/11/04 08:05:15;;;;;;;17.52;4.82;;;487.10;1971.20;;;;;;4805143;29;20035;-78
2021/11/04 08:07:41;;;;;;;18.95;4.43;;;487.20;1945.60;;;;;;4806433;29;20023;-79
2021/11/04 08:10:16;;;;;;;18.23;3.80;;;487.20;1945.60;;;;;;4790042;29;20030;-80
2021/11/04 08:12:42;;;;;;;11.77;4.45;;;487.30;1920.00;;;;;;4806436;29;20031;-84
2021/11/04 08:15:09;;;;;;;20.90;3.88;;;512.00;1920.00;;;;;;4805471;29;20054;-79
2021/11/04 08:17:36;;;;;;;13.25;4.28;;;512.10;1920.00;;;;;;4789037;29;20122;-78
2021/11/04 08:20:03;;;;;;;21.27;4.70;;;512.20;1920.00;;;;;;4789076;29;20031;-84
2021/11/04 08:22:29;;;;;;;16.65;3.42;;;512.30;1894.40;;;;;;4789416;29;20492;-82
2021/11/04 08:24:55;;;;;;;14.95;4.03;;;512.70;1843.20;;;;;;4789881;29;20172;-79
2021/11/04 08:27:21;;;;;;;19.60;4.40;;;537.90;1817.60;;;;;;4805098;29;20066;-78
2021/11/04 08:29:47;;;;;;;14.85;3.88;;;563.50;1792.00;;;;;;4804811;29;20038;-79
2021/11/04 08:32:13;;;;;;;12.68;3.72;;;588.80;1689.60;;;;;;4805111;29;20038;-84
2021/11/04 08:34:39;;;;;;;21.60;4.60;;;589.00;1638.40;;;;;;4805057;29;20035;-81
2021/11/04 08:37:06;;;;;;;17.75;3.90;;;588.90;1612.80;;;;;;4790205;29;20030;-85
2021/11/04 08:39:33;;;;;;;15.75;3.85;;;563.70;1715.20;;;;;;4806107;29;20019;-79
2021/11/04 08:41:59;;;;;;;17.20;4.25;;;538.50;1740.80;;;;;;4804950;29;20031;-84
2021/11/04 08:44:25;;;;;;;21.17;3.95;;;538.10;1766.40;;;;;;4805054;29;20069;-80
2021/11/04 08:46:51;;;;;;;19.27;4.05;;;537.80;1792.00;;;;;;4791741;29;20079;-79
2021/11/04 08:49:17;;;;;;;13.32;3.72;;;537.70;1843.20;;;;;;4792703;29;20074;-81
2021/11/04 08:51:44;;;;;;;12.02;3.88;;;;;;;;;;4808882;29;20103;-81
2021/11/04 08:54:09;;;;;;;10.57;3.28;;;537.80;1817.60;;;;;;4805169;29;20030;-80
2021/11/04 08:56:36;;;;;;;14.80;4.70;;;537.70;1817.60;;;;;;4808301;29;20031;-80
2021/11/04 08:59:03;;;;;;;13.02;4.35;;;537.70;1817.60;;;;;;4807019;29;20439;-81
2021/11/04 09:01:30;;;;;;;21.05;4.50;;;537.70;1817.60;;;;;;4792421;29;20141;-78
2021/11/04 09:03:56;;;;;;;15.32;4.63;;;538.10;1817.60;;;;;;4807752;29;20035;-79
2021/11/04 09:06:22;;;;;;;16.48;3.80;;;564.10;1689.60;;;;;;4807735;29;20121;-78
2021/11/04 09:08:48;;;;;;;15.48;3.60;;;564.10;1689.60;;;;;;4792645;29;20432;-79
2021/11/04 09:11:14;;;;;;;16.67;4.53;;;564.00;1689.60;;;;;;4807721;29;20091;-79
2021/11/04 09:13:40;;;;;;;18.98;4.07;;;563.70;1715.20;;;;;;4807468;29;20055;-78
2021/11/04 09:16:06;;;;;;;12.00;3.83;;;614.60;1612.80;;;;;;4808686;29;20118;-81
2021/11/04 09:18:32;;;;;;;21.38;4.22;;;691.30;1433.60;;;;;;4807391;29;20042;-81
2021/11/04 09:20:58;;;;;;;15.05;3.35;;;717.50;1254.40;;;;;;4792454;29;20022;-82
2021/11/04 09:23:24;;;;;;;18.02;3.95;;;768.20;1177.60;;;;;;4808929;29;20066;-81
2021/11/04 09:25:50;;;;;;;20.02;5.10;;;794.10;1075.20;;;;;;4807655;29;20485;-82
2021/11/04 09:28:16;;;;;;;20.38;4.72;;;845.00;998.40;;;;;;4808761;29;20115;-82
2021/11/04 09:30:42;;;;;;;14.13;4.40;;;870.80;921.60;;;;;;4807306;29;20023;-81
2021/11/04 09:33:10;;;;;;;15.02;4.70;;;896.80;844.80;;;;;;4807456;29;20083;-82
2021/11/04 09:35:36;;;;;;;11.43;4.05;;;921.60;896.00;;;;;;4792090;29;20057;-81
2021/11/04 09:38:06;;;;;;;16.23;4.20;;;922.10;844.80;;;;;;4792033;29;20397;-83
2021/11/04 09:40:32;;;;;;;17.63;5.05;;;845.00;896.00;;;;;;4807543;29;20027;-83
2021/11/04 09:42:59;;;;;;;13.00;4.90;;;768.50;1024.00;;;;;;4791664;29;20027;-83
2021/11/04 09:45:28;;;;;;;13.10;4.93;;;717.00;1152.00;;;;;;4807134;29;20027;-80
2021/11/04 09:47:55;;;;;;;16.80;6.72;;;691.20;1228.80;;;;;;4811388;29;20062;-82
2021/11/04 09:50:22;;;;;;;17.00;4.35;;;640.80;1280.00;;;;;;4810869;29;20092;-81
2021/11/04 09:52:54;;;;;;;16.80;5.10;;;691.80;1177.60;;;;;;4789487;29;20061;-79
2021/11/04 09:55:30;;;;;;;15.30;4.93;;;666.00;1280.00;;;;;;4784915;29;20043;-81
2021/11/04 09:58:00;;;;;;;20.50;5.22;;;640.50;1331.20;;;;;;4805643;29;20066;-80
2021/11/04 10:00:40;;;;;;;18.75;4.57;;;615.10;1408.00;;;;;;4792299;29;20065;-80
2021/11/04 10:03:14;;;;;;;17.92;7.03;;;614.70;1433.60;;;;;;4808354;29;20031;-79
2021/11/04 10:05:45;;;;;;;21.77;4.53;;;614.50;1459.20;;;;;;4808424;29;20026;-90
2021/11/04 10:08:14;;;;;;;14.50;3.75;;;614.40;1459.20;;;;;;4808277;29;20075;-91
2021/11/04 10:10:42;;;;;;;17.67;3.80;;;589.70;1459.20;;;;;;4791920;29;20033;-80
2021/11/04 10:13:10;;;;;;;19.40;4.68;;;589.50;1484.80;;;;;;4808084;29;20023;-80
2021/11/04 10:15:40;;;;;;;15.98;4.47;;;589.40;1510.40;;;;;;4808113;29;20066;-81
2021/11/04 10:18:13;;;;;;;19.20;4.80;;;589.50;1510.40;;;;;;4807828;29;20037;-92
2021/11/04 10:20:39;;;;;;;16.30;4.65;;;589.60;1484.80;;;;;;4791989;29;20457;-80
2021/11/04 10:23:08;;;;;;;11.40;3.45;;;589.70;1510.40;;;;;;4790894;29;20058;-80
2021/11/04 10:25:34;;;;;;;18.42;4.47;;;640.20;1382.40;;;;;;4806925;29;20029;-87
2021/11/04 10:28:20;;;;;;;12.75;3.72;;;691.30;1254.40;;;;;;4805502;29;20182;-81
2021/11/04 10:30:46;;;;;;;16.88;3.90;;;716.80;1203.20;;;;;;4805821;29;20031;-80
2021/11/04 10:33:22;;;;;;;14.50;4.60;;;742.40;1177.60;;;;;;4808289;29;20038;-94
2021/11/04 10:36:18;;;;;;;16.52;4.82;;;716.90;1203.20;;;;;;4806487;29;20061;-94
2021/11/04 10:38:58;;;;;;;20.80;4.90;;;692.10;1203.20;;;;;;4807074;29;20521;-95
2021/11/04 10:41:26;;;;;;;14.23;4.80;;;743.10;1100.80;;;;;;4792194;29;20481;-85
2021/11/04 10:43:55;;;;;;;18.50;4.28;;;768.00;1075.20;;;;;;4808251;29;20382;-80
2021/11/04 10:46:23;;;;;;;20.45;3.97;;;742.80;1100.80;;;;;;4793432;29;20054;-95
2021/11/04 10:48:57;;;;;;;19.83;4.72;;;742.50;1126.40;;;;;;4806567;29;20060;-88
2021/11/04 10:51:23;;;;;;;18.42;4.38;;;717.30;1152.00;;;;;;4805966;29;20080;-79
2021/11/04 10:54:16;;;;;;;18.50;6.53;;;691.70;1203.20;;;;;;4804238;29;20034;-79
2021/11/04 10:56:44;;;;;;;28.13;11.05;;;691.20;1254.40;;;;;;4787595;29;20046;-81
2021/11/04 10:59:16;;;;;;;20.48;6.50;;;665.90;1305.60;;;;;;4791564;29;20030;-94
2021/11/04 11:01:43;;;;;;;19.17;6.43;;;665.70;1305.60;;;;;;4806078;29;20030;-79
2021/11/04 11:04:12;;;;;;;19.73;5.60;;;640.80;1305.60;;;;;;4807264;29;20027;-79
2021/11/04 11:06:44;;;;;;;21.30;5.40;;;640.50;1305.60;;;;;;4806309;29;20427;-79
2021/11/04 11:09:20;;;;;;;17.23;4.93;;;640.40;1331.20;;;;;;4807044;29;20515;-79
2021/11/04 11:11:48;;;;;;;16.33;6.07;;;640.10;1356.80;;;;;;4805983;29;20022;-79
2021/11/04 11:14:20;;;;;;;21.50;7.93;;;615.20;1382.40;;;;;;4806942;29;20466;-79
2021/11/04 11:16:50;;;;;;;23.52;7.30;;;615.00;1433.60;;;;;;4806310;29;20442;-80
2021/11/04 11:19:30;;;;;;;24.55;7.22;;;614.90;1484.80;;;;;;4805371;29;20122;-78
2021/11/04 11:21:57;;;;;;;24.00;8.40;;;614.50;1433.60;;;;;;4806794;29;20062;-79
2021/11/04 11:24:33;;;;;;;42.00;8.93;;;589.70;1484.80;;;;;;4790471;29;20052;-78
2021/11/04 11:27:01;;;;;;;48.00;11.57;;;589.60;1536.00;;;;;;4806939;29;20076;-79
2021/11/04 11:29:33;;;;;;;43.38;9.60;;;589.40;1536.00;;;;;;4790057;29;20129;-79
2021/11/04 11:31:59;;;;;;;24.70;7.85;;;589.10;1510.40;;;;;;4805437;29;20027;-81
2021/11/04 11:34:27;;;;;;;38.58;10.52;;;588.80;1587.20;;;;;;4790168;29;20031;-79
2021/11/04 11:37:10;;;;;;;37.10;9.65;;;564.10;1612.80;;;;;;4805079;29;20480;-85
2021/11/04 11:39:41;;;;;;;42.65;11.88;;;563.70;1664.00;;;;;;4802344;29;20059;-80
2021/11/04 11:42:09;;;;;;;45.53;13.43;;;563.30;1638.40;;;;;;4804798;29;20087;-79
2021/11/04 11:44:52;;;;;;;24.27;7.40;;;563.30;1638.40;;;;;;4790238;29;20058;-81
2021/11/04 11:47:33;;;;;;;21.20;6.50;;;563.30;1766.40;;;;;;4806100;29;20027;-88
2021/11/04 11:50:29;;;;;;;18.73;6.78;;;563.50;1715.20;;;;;;4805713;29;20088;-85
2021/11/04 11:52:55;;;;;;;43.53;24.20;;;563.60;1740.80;;;;;;4806596;29;20077;-85
2021/11/04 11:55:35;;;;;;;37.60;21.65;;;563.60;1766.40;;;;;;4805167;29;20027;-84
2021/11/04 11:58:23;;;;;;;37.50;17.35;;;563.70;1766.40;;;;;;4805355;29;20034;-86
2021/11/04 12:01:07;;;;;;;28.70;8.18;;;563.70;1740.80;;;;;;4791900;29;20080;-86
2021/11/04 12:03:43;;;;;;;31.83;11.55;;;563.70;1817.60;;;;;;4787677;30;20031;-86
2021/11/04 12:06:12;;;;;;;17.80;5.57;;;563.60;1920.00;;;;;;4803687;29;20027;-87
2021/11/04 12:08:40;;;;;;;12.80;4.57;;;563.50;1868.80;;;;;;4815519;29;20218;-85
2021/11/04 12:11:08;;;;;;;18.20;4.75;;;563.30;1894.40;;;;;;4823402;29;20094;-84
2021/11/04 12:13:40;;;;;;;14.40;4.38;;;563.30;1894.40;;;;;;4824271;29;20066;-86
2021/11/04 12:16:09;;;;;;;20.33;6.23;;;563.20;1894.40;;;;;;4823397;29;20522;-86